createdAt,value
2023-05-21T00:00:10.844Z,7.97
2023-05-21T00:02:40.762Z,7.70
2023-05-21T00:05:14.768Z,7.63
2023-05-21T00:07:43.360Z,7.60
2023-05-21T00:10:12.044Z,8.00
2023-05-21T00:12:41.745Z,8.07
2023-05-21T00:15:11.178Z,8.13
2023-05-21T00:17:40.124Z,8.03
2023-05-21T00:20:10.892Z,6.43
2023-05-21T00:22:40.346Z,7.33
2023-05-21T00:25:09.349Z,7.50
2023-05-21T00:27:37.696Z,7.43
2023-05-21T00:30:07.251Z,7.50
2023-05-21T00:32:35.575Z,7.47
2023-05-21T00:35:04.063Z,6.60
2023-05-21T00:37:34.552Z,6.93
2023-05-21T00:40:04.842Z,7.40
2023-05-21T00:42:33.794Z,7.40
2023-05-21T00:45:03.768Z,7.87
2023-05-21T00:47:32.691Z,6.73
2023-05-21T00:50:03.607Z,8.60
2023-05-21T00:52:33.560Z,7.50
2023-05-21T00:55:01.971Z,7.37
2023-05-21T00:57:33.372Z,8.67
2023-05-21T01:00:01.882Z,7.23
2023-05-21T01:02:33.174Z,7.30
2023-05-21T01:05:01.814Z,7.47
2023-05-21T01:07:30.665Z,7.67
2023-05-21T01:10:00.471Z,7.50
2023-05-21T01:12:30.146Z,6.97
2023-05-21T01:14:59.406Z,7.57
2023-05-21T01:17:29.599Z,6.20
2023-05-21T01:19:59.438Z,6.80
2023-05-21T01:22:30.365Z,7.27
2023-05-21T01:25:02.872Z,7.33
2023-05-21T01:27:31.649Z,6.77
2023-05-21T01:30:02.708Z,7.00
2023-05-21T01:32:39.602Z,7.90
2023-05-21T01:35:12.295Z,6.67
2023-05-21T01:37:50.014Z,6.80
2023-05-21T01:40:42.786Z,6.60
2023-05-21T01:43:12.241Z,6.60
2023-05-21T01:45:43.665Z,6.10
2023-05-21T01:48:13.281Z,7.00
2023-05-21T01:50:43.141Z,6.33
2023-05-21T01:53:11.540Z,5.93
2023-05-21T01:55:41.950Z,6.57
2023-05-21T01:58:10.596Z,5.50
2023-05-21T02:00:40.050Z,5.87
2023-05-21T02:03:08.932Z,6.13
2023-05-21T02:05:37.934Z,5.47
2023-05-21T02:08:08.457Z,5.30
2023-05-21T02:10:37.167Z,5.40
2023-05-21T02:13:07.002Z,5.90
2023-05-21T02:15:35.634Z,5.37
2023-05-21T02:18:04.678Z,5.00
2023-05-21T02:20:33.891Z,5.20
2023-05-21T02:23:02.235Z,5.13
2023-05-21T02:25:30.587Z,5.23
2023-05-21T02:27:59.518Z,5.00
2023-05-21T02:30:29.407Z,5.23
2023-05-21T02:32:58.946Z,4.70
2023-05-21T02:35:27.712Z,5.50
2023-05-21T02:37:59.099Z,5.33
2023-05-21T02:40:27.804Z,5.33
2023-05-21T02:42:56.283Z,4.83
2023-05-21T02:45:25.794Z,4.83
2023-05-21T02:47:56.135Z,5.20
2023-05-21T02:50:24.881Z,5.63
2023-05-21T02:52:59.719Z,5.23
2023-05-21T02:55:28.364Z,6.40
2023-05-21T02:57:57.235Z,5.70
2023-05-21T03:00:25.566Z,5.80
2023-05-21T03:02:55.366Z,6.00
2023-05-21T03:05:24.541Z,6.00
2023-05-21T03:07:53.400Z,5.33
2023-05-21T03:10:22.476Z,5.77
2023-05-21T03:12:53.530Z,5.77
2023-05-21T03:15:24.294Z,5.63
2023-05-21T03:17:54.325Z,5.57
2023-05-21T03:20:28.055Z,5.63
2023-05-21T03:22:56.992Z,6.23
2023-05-21T03:25:25.442Z,6.00
2023-05-21T03:27:55.705Z,5.10
2023-05-21T03:30:51.090Z,5.00
2023-05-21T03:33:38.201Z,4.80
2023-05-21T03:36:28.157Z,5.67
2023-05-21T03:38:58.224Z,4.53
2023-05-21T03:41:26.741Z,5.37
2023-05-21T03:44:06.573Z,6.07
2023-05-21T03:46:47.434Z,6.23
2023-05-21T03:49:23.453Z,5.20
2023-05-21T03:51:56.245Z,4.87
2023-05-21T03:54:25.772Z,6.00
2023-05-21T03:56:57.913Z,5.77
2023-05-21T03:59:28.844Z,5.33
2023-05-21T04:01:57.597Z,5.47
2023-05-21T04:04:26.076Z,5.83
2023-05-21T04:06:55.840Z,5.23
2023-05-21T04:09:24.661Z,5.77
2023-05-21T04:11:53.934Z,5.20
2023-05-21T04:14:23.695Z,4.40
2023-05-21T04:16:53.895Z,4.63
2023-05-21T04:19:23.321Z,4.90
2023-05-21T04:21:52.251Z,4.30
2023-05-21T04:24:22.588Z,4.93
2023-05-21T04:27:01.440Z,5.43
2023-05-21T04:29:31.853Z,5.50
2023-05-21T04:32:00.570Z,5.13
2023-05-21T04:34:29.772Z,5.10
2023-05-21T04:36:58.629Z,4.70
2023-05-21T04:39:28.728Z,4.23
2023-05-21T04:41:57.122Z,5.70
2023-05-21T04:44:26.642Z,5.30
2023-05-21T04:46:57.587Z,6.07
2023-05-21T04:49:26.716Z,5.33
2023-05-21T04:51:55.149Z,6.53
2023-05-21T04:54:24.079Z,5.60
2023-05-21T04:56:54.024Z,5.20
2023-05-21T04:59:22.937Z,6.00
2023-05-21T05:01:51.411Z,5.20
2023-05-21T05:04:19.897Z,4.80
2023-05-21T05:06:48.386Z,5.60
2023-05-21T05:09:16.864Z,5.80
2023-05-21T05:11:45.316Z,5.83
2023-05-21T05:14:15.112Z,5.53
2023-05-21T05:16:48.195Z,4.63
2023-05-21T05:19:17.906Z,4.70
2023-05-21T05:21:46.474Z,5.97
2023-05-21T05:24:16.267Z,4.90
2023-05-21T05:26:45.200Z,4.97
2023-05-21T05:29:15.187Z,5.23
2023-05-21T05:31:43.796Z,5.00
2023-05-21T05:34:12.421Z,6.03
2023-05-21T05:36:40.912Z,5.53
2023-05-21T05:39:10.285Z,4.97
2023-05-21T05:41:39.465Z,4.27
2023-05-21T05:44:10.230Z,5.90
2023-05-21T05:46:40.839Z,5.30
2023-05-21T05:49:09.872Z,6.60
2023-05-21T05:51:38.451Z,6.40
2023-05-21T05:54:07.378Z,6.03
2023-05-21T05:56:37.518Z,6.27
2023-05-21T05:59:07.120Z,4.87
2023-05-21T06:01:38.587Z,5.87
2023-05-21T06:04:09.449Z,5.53
2023-05-21T06:06:38.868Z,5.97
2023-05-21T06:09:07.602Z,5.27
2023-05-21T06:11:36.377Z,5.80
2023-05-21T06:14:05.455Z,5.33
2023-05-21T06:16:34.583Z,5.00
2023-05-21T06:19:03.159Z,5.50
2023-05-21T06:21:33.042Z,6.10
2023-05-21T06:24:01.513Z,5.70
2023-05-21T06:26:31.249Z,6.10
2023-05-21T06:29:00.499Z,6.03
2023-05-21T06:31:33.170Z,6.33
2023-05-21T06:34:02.234Z,5.30
2023-05-21T06:36:32.679Z,6.50
2023-05-21T06:39:01.393Z,6.40
2023-05-21T06:41:30.296Z,5.00
2023-05-21T06:44:01.808Z,5.90
2023-05-21T06:47:02.058Z,6.33
2023-05-21T06:49:33.194Z,7.10
2023-05-21T06:52:03.306Z,6.47
2023-05-21T06:54:32.256Z,6.50
2023-05-21T06:57:02.558Z,8.10
2023-05-21T06:59:32.725Z,6.93
2023-05-21T07:02:04.471Z,6.83
2023-05-21T07:04:35.261Z,6.40
2023-05-21T07:07:05.647Z,5.93
2023-05-21T07:09:34.804Z,6.73
2023-05-21T07:12:03.331Z,6.83
2023-05-21T07:14:31.764Z,7.50
2023-05-21T07:17:00.620Z,5.97
2023-05-21T07:19:29.332Z,7.73
2023-05-21T07:21:58.632Z,9.70
2023-05-21T07:24:28.572Z,10.17
2023-05-21T07:26:56.967Z,9.97
2023-05-21T07:29:25.493Z,10.10
2023-05-21T07:31:53.970Z,8.63
2023-05-21T07:34:26.221Z,6.87
2023-05-21T07:36:54.809Z,7.27
2023-05-21T07:39:23.496Z,6.97
2023-05-21T07:41:53.243Z,7.90
2023-05-21T07:44:22.219Z,7.37
2023-05-21T07:46:50.710Z,7.00
2023-05-21T07:49:19.252Z,6.33
2023-05-21T07:51:51.235Z,9.20
2023-05-21T07:54:21.128Z,7.37
2023-05-21T07:56:49.924Z,6.83
2023-05-21T07:59:39.628Z,8.13
2023-05-21T08:02:09.186Z,7.73
2023-05-21T08:04:41.015Z,8.03
2023-05-21T08:07:12.854Z,7.30
2023-05-21T08:09:41.367Z,8.50
2023-05-21T08:12:14.442Z,8.97
2023-05-21T08:14:44.529Z,7.70
2023-05-21T08:17:14.771Z,8.13
2023-05-21T08:19:43.262Z,8.00
2023-05-21T08:22:12.375Z,8.83
2023-05-21T08:24:44.720Z,9.07
2023-05-21T08:27:13.123Z,7.50
2023-05-21T08:29:42.340Z,8.37
2023-05-21T08:32:12.587Z,9.10
2023-05-21T08:34:41.117Z,8.33
2023-05-21T08:37:34.805Z,7.33
2023-05-21T08:40:13.350Z,7.47
2023-05-21T08:42:49.120Z,7.40
2023-05-21T08:45:24.534Z,7.33
2023-05-21T08:47:58.125Z,7.60
2023-05-21T08:50:29.648Z,6.17
2023-05-21T08:53:05.652Z,7.87
2023-05-21T08:55:43.496Z,8.47
2023-05-21T08:58:13.740Z,7.00
2023-05-21T09:00:43.755Z,6.60
2023-05-21T09:03:15.861Z,7.00
2023-05-21T09:05:46.858Z,6.13
2023-05-21T09:08:19.386Z,7.93
2023-05-21T09:10:55.344Z,7.60
2023-05-21T09:13:30.068Z,8.30
2023-05-21T09:15:58.793Z,8.20
2023-05-21T09:18:28.743Z,7.70
2023-05-21T09:21:26.696Z,7.77
2023-05-21T09:23:59.962Z,7.37
2023-05-21T09:26:28.776Z,8.00
2023-05-21T09:29:01.931Z,8.27
2023-05-21T09:31:32.992Z,7.60
2023-05-21T09:34:03.997Z,6.33
2023-05-21T09:36:34.758Z,7.80
2023-05-21T09:39:03.450Z,7.60
2023-05-21T09:41:37.021Z,9.20
2023-05-21T09:44:06.610Z,8.60
2023-05-21T09:46:40.794Z,9.13
2023-05-21T09:49:26.348Z,8.63
2023-05-21T09:51:59.536Z,7.97
2023-05-21T09:54:32.954Z,7.70
2023-05-21T09:57:02.543Z,8.97
2023-05-21T09:59:37.872Z,9.17
2023-05-21T10:02:18.934Z,8.87
2023-05-21T10:04:51.062Z,8.20
2023-05-21T10:07:21.783Z,8.77
2023-05-21T10:09:51.333Z,8.03
2023-05-21T10:12:21.003Z,8.87
2023-05-21T10:14:55.450Z,7.43
2023-05-21T10:17:24.967Z,7.70
2023-05-21T10:19:56.816Z,8.63
2023-05-21T10:22:28.655Z,10.40
2023-05-21T10:24:57.818Z,8.27
2023-05-21T10:27:26.435Z,8.10
2023-05-21T10:29:55.635Z,8.33
2023-05-21T10:32:25.225Z,8.10
2023-05-21T10:34:55.807Z,9.63
2023-05-21T10:37:26.655Z,9.87
2023-05-21T10:39:55.793Z,9.30
2023-05-21T10:42:46.635Z,9.60
2023-05-21T10:45:25.198Z,7.90
2023-05-21T10:48:19.834Z,9.17
2023-05-21T10:51:17.861Z,9.93
2023-05-21T10:54:05.559Z,9.00
2023-05-21T10:56:40.250Z,9.83
2023-05-21T10:59:21.817Z,8.17
2023-05-21T11:01:52.902Z,9.53
2023-05-21T11:04:24.568Z,10.80
2023-05-21T11:06:54.672Z,10.97
2023-05-21T11:09:23.162Z,11.07
2023-05-21T11:11:52.764Z,10.10
2023-05-21T11:14:32.859Z,9.10
2023-05-21T11:17:01.537Z,9.10
2023-05-21T11:19:40.615Z,8.90
2023-05-21T11:22:21.413Z,8.60
2023-05-21T11:24:51.290Z,9.53
2023-05-21T11:27:37.392Z,9.40
2023-05-21T11:30:08.126Z,8.83
2023-05-21T11:32:40.130Z,8.17
2023-05-21T11:35:09.222Z,8.57
2023-05-21T11:37:41.780Z,9.80
2023-05-21T11:40:26.196Z,10.27
2023-05-21T11:42:55.889Z,10.73
2023-05-21T11:45:28.992Z,11.30
2023-05-21T11:47:58.615Z,11.60
2023-05-21T11:50:27.400Z,10.43
2023-05-21T11:52:59.909Z,9.00
2023-05-21T11:55:28.926Z,10.00
2023-05-21T11:57:57.568Z,8.70
2023-05-21T12:00:26.048Z,8.57
2023-05-21T12:02:55.975Z,9.77
2023-05-21T12:05:27.209Z,9.40
2023-05-21T12:07:58.465Z,9.20
2023-05-21T12:10:26.908Z,9.57
2023-05-21T12:12:57.352Z,10.87
2023-05-21T12:15:28.152Z,9.37
2023-05-21T12:17:57.241Z,8.40
2023-05-21T12:20:29.001Z,7.27
2023-05-21T12:23:00.866Z,8.60
2023-05-21T12:25:30.539Z,8.57
2023-05-21T12:28:01.626Z,9.63
2023-05-21T12:30:30.410Z,7.67
2023-05-21T12:33:02.361Z,7.47
2023-05-21T12:35:32.606Z,8.97
2023-05-21T12:38:04.298Z,10.53
2023-05-21T12:40:37.486Z,8.57
2023-05-21T12:43:07.402Z,9.03
2023-05-21T12:45:37.164Z,8.70
2023-05-21T12:48:05.966Z,8.33
2023-05-21T12:50:35.899Z,9.27
2023-05-21T12:53:09.809Z,8.23
2023-05-21T12:55:38.240Z,8.50
2023-05-21T12:58:09.253Z,8.97
2023-05-21T13:00:38.667Z,8.20
2023-05-21T13:03:07.475Z,7.93
2023-05-21T13:05:36.569Z,8.00
2023-05-21T13:08:06.651Z,7.63
2023-05-21T13:10:35.634Z,7.47
2023-05-21T13:13:04.105Z,8.30
2023-05-21T13:15:33.026Z,9.23
2023-05-21T13:18:01.844Z,8.60
2023-05-21T13:20:30.541Z,8.47
2023-05-21T13:22:59.135Z,8.80
2023-05-21T13:25:29.743Z,6.83
2023-05-21T13:27:58.976Z,9.60
2023-05-21T13:30:27.390Z,8.30
2023-05-21T13:32:56.177Z,9.50
2023-05-21T13:35:24.875Z,8.57
2023-05-21T13:37:53.498Z,7.77
2023-05-21T13:40:22.152Z,8.30
2023-05-21T13:42:51.938Z,8.57
2023-05-21T13:45:21.976Z,10.83
2023-05-21T13:47:50.465Z,7.87
2023-05-21T13:50:18.982Z,7.57
2023-05-21T13:52:47.421Z,7.20
2023-05-21T13:55:16.889Z,8.80
2023-05-21T13:57:46.068Z,7.57
2023-05-21T14:00:16.696Z,8.37
2023-05-21T14:02:45.391Z,9.00
2023-05-21T14:05:14.463Z,9.80
2023-05-21T14:07:43.106Z,8.20
2023-05-21T14:10:12.342Z,8.93
2023-05-21T14:12:41.049Z,8.07
2023-05-21T14:15:10.736Z,8.80
2023-05-21T14:17:42.499Z,8.73
2023-05-21T14:20:11.899Z,7.97
2023-05-21T14:22:40.383Z,8.80
2023-05-21T14:25:09.161Z,8.40
2023-05-21T14:27:38.839Z,8.40
2023-05-21T14:30:08.457Z,9.00
2023-05-21T14:32:36.893Z,10.07
2023-05-21T14:35:07.814Z,9.10
2023-05-21T14:37:36.345Z,8.20
2023-05-21T14:40:07.804Z,8.40
2023-05-21T14:42:36.558Z,8.37
2023-05-21T14:45:18.028Z,8.70
2023-05-21T14:47:48.394Z,8.90
2023-05-21T14:50:19.221Z,8.47
2023-05-21T14:52:47.731Z,8.60
2023-05-21T14:55:18.451Z,8.33
2023-05-21T14:57:46.771Z,7.57
2023-05-21T15:00:15.872Z,8.23
2023-05-21T15:02:44.432Z,8.47
2023-05-21T15:05:12.975Z,8.70
2023-05-21T15:07:42.768Z,8.30
2023-05-21T15:10:11.620Z,8.00
2023-05-21T15:12:41.106Z,7.93
2023-05-21T15:15:10.226Z,7.23
2023-05-21T15:17:38.788Z,7.50
2023-05-21T15:20:09.415Z,8.27
2023-05-21T15:22:38.295Z,8.37
2023-05-21T15:25:08.831Z,8.00
2023-05-21T15:27:37.218Z,7.97
2023-05-21T15:30:06.504Z,8.20
2023-05-21T15:32:34.840Z,7.70
2023-05-21T15:35:03.281Z,7.77
2023-05-21T15:37:33.086Z,7.17
2023-05-21T15:40:01.704Z,6.90
2023-05-21T15:42:31.962Z,6.93
2023-05-21T15:45:00.483Z,7.03
2023-05-21T15:47:28.903Z,8.13
2023-05-21T15:49:58.859Z,7.33
2023-05-21T15:52:27.373Z,8.07
2023-05-21T15:54:55.987Z,7.07
2023-05-21T15:57:24.365Z,7.53
2023-05-21T15:59:54.195Z,7.70
2023-05-21T16:02:22.557Z,8.30
2023-05-21T16:04:52.253Z,8.63
2023-05-21T16:07:21.078Z,7.80
2023-05-21T16:09:49.495Z,8.50
2023-05-21T16:12:18.069Z,8.17
2023-05-21T16:14:48.451Z,7.80
2023-05-21T16:17:18.312Z,7.97
2023-05-21T16:19:47.479Z,7.50
2023-05-21T16:22:16.454Z,7.23
2023-05-21T16:24:44.826Z,7.33
2023-05-21T16:27:13.146Z,7.30
2023-05-21T16:29:41.739Z,8.10
2023-05-21T16:32:12.990Z,8.60
2023-05-21T16:34:43.028Z,7.30
2023-05-21T16:37:11.444Z,7.67
2023-05-21T16:39:39.854Z,7.40
2023-05-21T16:42:08.281Z,7.27
2023-05-21T16:44:38.080Z,7.73
2023-05-21T16:47:06.756Z,8.30
2023-05-21T16:49:35.323Z,8.10
2023-05-21T16:52:05.480Z,7.17
2023-05-21T16:54:35.102Z,8.13
2023-05-21T16:57:03.486Z,7.63
2023-05-21T16:59:31.899Z,7.70
2023-05-21T17:02:00.539Z,7.50
2023-05-21T17:04:29.801Z,8.00
2023-05-21T17:06:58.416Z,8.03
2023-05-21T17:09:28.244Z,6.90
2023-05-21T17:11:56.686Z,9.00
2023-05-21T17:14:33.703Z,8.63
2023-05-21T17:17:02.624Z,8.80
2023-05-21T17:19:31.130Z,8.83
2023-05-21T17:22:00.853Z,7.30
2023-05-21T17:24:30.896Z,7.33
2023-05-21T17:26:59.449Z,8.90
2023-05-21T17:29:28.024Z,8.87
2023-05-21T17:31:56.731Z,8.70
2023-05-21T17:34:29.585Z,7.53
2023-05-21T17:36:59.757Z,8.30
2023-05-21T17:39:28.353Z,7.73
2023-05-21T17:41:58.681Z,8.83
2023-05-21T17:44:27.083Z,8.30
2023-05-21T17:46:56.440Z,8.07
2023-05-21T17:49:25.210Z,7.47
2023-05-21T17:51:53.985Z,8.17
2023-05-21T17:54:22.478Z,8.60
2023-05-21T17:56:50.866Z,8.60
2023-05-21T17:59:21.290Z,8.70
2023-05-21T18:01:49.666Z,8.40
2023-05-21T18:04:18.346Z,7.87
2023-05-21T18:06:46.871Z,8.20
2023-05-21T18:09:15.539Z,8.17
2023-05-21T18:11:44.836Z,9.80
2023-05-21T18:14:13.407Z,9.03
2023-05-21T18:16:43.245Z,9.33
2023-05-21T18:19:11.837Z,10.40
2023-05-21T18:21:40.713Z,9.40
2023-05-21T18:24:09.849Z,9.40
2023-05-21T18:26:38.404Z,9.90
2023-05-21T18:29:06.805Z,10.23
2023-05-21T18:31:35.236Z,8.33
2023-05-21T18:34:05.178Z,10.37
2023-05-21T18:36:38.850Z,9.07
2023-05-21T18:39:07.921Z,8.60
2023-05-21T18:41:37.415Z,8.70
2023-05-21T18:44:07.027Z,8.93
2023-05-21T18:46:35.467Z,8.73
2023-05-21T18:49:05.971Z,9.43
2023-05-21T18:51:34.392Z,8.50
2023-05-21T18:54:02.720Z,7.93
2023-05-21T18:56:31.086Z,9.73
2023-05-21T18:58:59.671Z,9.13
2023-05-21T19:01:28.265Z,8.97
2023-05-21T19:03:56.754Z,9.67
2023-05-21T19:06:27.790Z,9.40
2023-05-21T19:08:56.317Z,9.43
2023-05-21T19:11:27.540Z,8.10
2023-05-21T19:13:55.906Z,8.80
2023-05-21T19:16:24.379Z,8.60
2023-05-21T19:18:52.865Z,8.17
2023-05-21T19:21:21.443Z,7.77
2023-05-21T19:23:53.693Z,7.50
2023-05-21T19:26:22.962Z,8.43
2023-05-21T19:28:53.926Z,9.50
2023-05-21T19:31:23.239Z,9.83
2023-05-21T19:33:52.444Z,9.13
2023-05-21T19:36:21.984Z,9.43
2023-05-21T19:38:52.241Z,9.13
2023-05-21T19:41:22.080Z,8.30
2023-05-21T19:43:51.161Z,10.30
2023-05-21T19:46:20.653Z,10.07
2023-05-21T19:48:49.581Z,10.27
2023-05-21T19:51:18.198Z,11.53
2023-05-21T19:53:46.576Z,10.67
2023-05-21T19:56:16.797Z,10.57
2023-05-21T19:58:48.041Z,10.33
2023-05-21T20:01:17.749Z,12.17
2023-05-21T20:03:46.409Z,12.07
2023-05-21T20:06:16.928Z,11.23
2023-05-21T20:08:45.840Z,11.80
2023-05-21T20:11:15.717Z,11.47
2023-05-21T20:13:48.560Z,11.87
2023-05-21T20:16:18.344Z,12.43
2023-05-21T20:18:47.377Z,13.07
2023-05-21T20:21:17.472Z,11.40
2023-05-21T20:23:49.499Z,11.53
2023-05-21T20:26:19.987Z,12.70
2023-05-21T20:28:48.457Z,10.60
2023-05-21T20:31:17.045Z,9.70
2023-05-21T20:33:46.375Z,9.90
2023-05-21T20:36:15.507Z,9.90
2023-05-21T20:38:45.711Z,8.10
2023-05-21T20:41:14.819Z,8.40
2023-05-21T20:43:45.505Z,8.07
2023-05-21T20:46:14.088Z,8.10
2023-05-21T20:48:43.621Z,8.50
2023-05-21T20:51:12.237Z,9.70
2023-05-21T20:53:40.861Z,10.23
2023-05-21T20:56:11.815Z,9.63
2023-05-21T20:58:40.539Z,10.60
2023-05-21T21:01:10.734Z,10.30
2023-05-21T21:03:41.423Z,10.77
2023-05-21T21:06:10.013Z,11.80
2023-05-21T21:08:40.388Z,11.03
2023-05-21T21:11:09.160Z,11.50
2023-05-21T21:13:37.795Z,11.47
2023-05-21T21:16:07.154Z,11.60
2023-05-21T21:18:37.181Z,12.20
2023-05-21T21:21:06.603Z,11.93
2023-05-21T21:23:35.090Z,11.60
2023-05-21T21:26:03.512Z,12.33
2023-05-21T21:28:31.985Z,13.10
2023-05-21T21:31:00.405Z,12.53
2023-05-21T21:33:28.820Z,13.40
2023-05-21T21:35:58.577Z,13.63
2023-05-21T21:38:26.879Z,15.60
2023-05-21T21:40:55.551Z,13.73
2023-05-21T21:43:23.946Z,12.67
2023-05-21T21:45:52.477Z,14.13
2023-05-21T21:48:20.927Z,13.67
2023-05-21T21:50:49.315Z,15.93
2023-05-21T21:53:19.010Z,14.27
2023-05-21T21:55:47.420Z,14.63
2023-05-21T21:58:16.071Z,14.37
2023-05-21T22:00:44.487Z,15.70
2023-05-21T22:03:14.723Z,16.07
2023-05-21T22:05:43.735Z,14.20
2023-05-21T22:08:12.069Z,16.47
2023-05-21T22:10:41.807Z,14.93
2023-05-21T22:13:10.135Z,15.47
2023-05-21T22:15:38.673Z,15.70
2023-05-21T22:18:09.611Z,14.37
2023-05-21T22:20:38.419Z,14.20
2023-05-21T22:23:07.453Z,13.43
2023-05-21T22:25:36.011Z,13.83
2023-05-21T22:28:06.396Z,13.20
2023-05-21T22:30:35.072Z,12.70
2023-05-21T22:33:03.688Z,13.10
2023-05-21T22:35:32.398Z,13.00
2023-05-21T22:38:02.389Z,11.37
2023-05-21T22:40:30.876Z,11.40
2023-05-21T22:42:59.378Z,12.00
2023-05-21T22:45:29.269Z,10.47
2023-05-21T22:48:01.672Z,11.77
2023-05-21T22:50:32.965Z,11.30
2023-05-21T22:53:01.563Z,10.37
2023-05-21T22:55:29.893Z,10.77
2023-05-21T22:57:58.230Z,12.20
2023-05-21T23:00:28.126Z,11.13
2023-05-21T23:02:56.670Z,11.97
2023-05-21T23:05:25.165Z,12.13
2023-05-21T23:07:53.785Z,12.27
2023-05-21T23:10:22.396Z,10.80
2023-05-21T23:12:50.775Z,10.80
2023-05-21T23:15:19.130Z,9.47
2023-05-21T23:17:48.928Z,10.00
2023-05-21T23:20:17.484Z,9.00
2023-05-21T23:22:45.828Z,9.00
2023-05-21T23:25:14.215Z,8.83
2023-05-21T23:27:42.652Z,8.70
2023-05-21T23:30:11.900Z,8.27
2023-05-21T23:32:40.483Z,8.33
2023-05-21T23:35:11.748Z,8.00
2023-05-21T23:37:40.330Z,8.47
2023-05-21T23:40:10.102Z,7.70
2023-05-21T23:42:38.676Z,8.13
2023-05-21T23:45:08.069Z,7.77
2023-05-21T23:47:36.487Z,8.77
2023-05-21T23:50:05.380Z,7.73
2023-05-21T23:52:35.294Z,7.60
2023-05-21T23:55:03.761Z,7.57
2023-05-21T23:57:32.095Z,7.50
